sensor_id;sensor_type;location;lat;lon;timestamp;P1;durP1;ratioP1;P2;durP2;ratioP2
69937;SDS011;57248;47.320;15.998;2023-02-15T00:02:12;36.75;;;13.68;;
69937;SDS011;57248;47.320;15.998;2023-02-15T00:04:44;36.17;;;13.23;;
69937;SDS011;57248;47.320;15.998;2023-02-15T00:07:19;35.67;;;13.43;;
69937;SDS011;57248;47.320;15.998;2023-02-15T00:09:51;36.25;;;13.88;;
69937;SDS011;57248;47.320;15.998;2023-02-15T00:12:23;37.50;;;13.77;;
69937;SDS011;57248;47.320;15.998;2023-02-15T00:14:55;36.67;;;13.88;;
69937;SDS011;57248;47.320;15.998;2023-02-15T00:17:28;36.30;;;13.40;;
69937;SDS011;57248;47.320;15.998;2023-02-15T00:20:00;35.50;;;13.15;;
69937;SDS011;57248;47.320;15.998;2023-02-15T00:22:32;34.50;;;13.20;;
69937;SDS011;57248;47.320;15.998;2023-02-15T00:25:04;34.72;;;12.75;;
69937;SDS011;57248;47.320;15.998;2023-02-15T00:27:36;39.42;;;14.02;;
69937;SDS011;57248;47.320;15.998;2023-02-15T00:30:09;37.87;;;13.60;;
69937;SDS011;57248;47.320;15.998;2023-02-15T00:32:49;35.83;;;12.75;;
69937;SDS011;57248;47.320;15.998;2023-02-15T00:35:21;39.35;;;13.70;;
69937;SDS011;57248;47.320;15.998;2023-02-15T00:38:00;36.25;;;13.18;;
69937;SDS011;57248;47.320;15.998;2023-02-15T00:40:32;36.58;;;13.23;;
69937;SDS011;57248;47.320;15.998;2023-02-15T00:43:05;36.67;;;12.87;;
69937;SDS011;57248;47.320;15.998;2023-02-15T00:45:36;33.40;;;12.48;;
69937;SDS011;57248;47.320;15.998;2023-02-15T00:48:02;34.57;;;13.37;;
69937;SDS011;57248;47.320;15.998;2023-02-15T00:50:33;33.30;;;11.85;;
69937;SDS011;57248;47.320;15.998;2023-02-15T00:53:06;36.38;;;12.73;;
69937;SDS011;57248;47.320;15.998;2023-02-15T00:55:38;34.85;;;12.60;;
69937;SDS011;57248;47.320;15.998;2023-02-15T00:58:12;38.15;;;13.10;;
69937;SDS011;57248;47.320;15.998;2023-02-15T01:00:45;37.60;;;13.53;;
69937;SDS011;57248;47.320;15.998;2023-02-15T01:03:19;31.58;;;11.85;;
69937;SDS011;57248;47.320;15.998;2023-02-15T01:05:51;33.13;;;13.00;;
69937;SDS011;57248;47.320;15.998;2023-02-15T01:08:25;36.00;;;12.38;;
69937;SDS011;57248;47.320;15.998;2023-02-15T01:11:02;36.70;;;12.82;;
69937;SDS011;57248;47.320;15.998;2023-02-15T01:13:41;37.73;;;13.07;;
69937;SDS011;57248;47.320;15.998;2023-02-15T01:16:13;34.17;;;12.70;;
69937;SDS011;57248;47.320;15.998;2023-02-15T01:18:45;32.42;;;12.30;;
69937;SDS011;57248;47.320;15.998;2023-02-15T01:21:20;32.95;;;11.55;;
69937;SDS011;57248;47.320;15.998;2023-02-15T01:23:52;30.75;;;12.05;;
69937;SDS011;57248;47.320;15.998;2023-02-15T01:26:32;34.37;;;12.20;;
69937;SDS011;57248;47.320;15.998;2023-02-15T01:29:05;32.80;;;12.48;;
69937;SDS011;57248;47.320;15.998;2023-02-15T01:31:50;33.67;;;12.40;;
69937;SDS011;57248;47.320;15.998;2023-02-15T01:34:22;34.38;;;12.07;;
69937;SDS011;57248;47.320;15.998;2023-02-15T01:37:01;34.60;;;12.07;;
69937;SDS011;57248;47.320;15.998;2023-02-15T01:39:33;35.73;;;12.47;;
69937;SDS011;57248;47.320;15.998;2023-02-15T01:42:08;33.67;;;12.25;;
69937;SDS011;57248;47.320;15.998;2023-02-15T01:47:40;28.05;;;11.73;;
69937;SDS011;57248;47.320;15.998;2023-02-15T01:50:22;31.70;;;11.95;;
69937;SDS011;57248;47.320;15.998;2023-02-15T01:53:13;32.30;;;11.70;;
69937;SDS011;57248;47.320;15.998;2023-02-15T01:55:55;32.10;;;11.65;;
69937;SDS011;57248;47.320;15.998;2023-02-15T01:58:31;33.17;;;12.10;;
69937;SDS011;57248;47.320;15.998;2023-02-15T02:01:06;31.25;;;11.55;;
69937;SDS011;57248;47.320;15.998;2023-02-15T02:03:57;29.52;;;11.13;;
69937;SDS011;57248;47.320;15.998;2023-02-15T02:06:36;34.37;;;11.07;;
69937;SDS011;57248;47.320;15.998;2023-02-15T02:09:09;34.20;;;12.30;;
69937;SDS011;57248;47.320;15.998;2023-02-15T02:11:42;31.85;;;11.88;;
69937;SDS011;57248;47.320;15.998;2023-02-15T02:14:17;32.35;;;11.70;;
69937;SDS011;57248;47.320;15.998;2023-02-15T02:31:37;32.22;;;10.88;;
69937;SDS011;57248;47.320;15.998;2023-02-15T02:34:51;28.70;;;10.57;;
69937;SDS011;57248;47.320;15.998;2023-02-15T02:42:59;31.70;;;11.40;;
69937;SDS011;57248;47.320;15.998;2023-02-15T02:45:43;31.98;;;12.00;;
69937;SDS011;57248;47.320;15.998;2023-02-15T02:48:19;28.00;;;10.30;;
69937;SDS011;57248;47.320;15.998;2023-02-15T02:50:55;30.50;;;11.15;;
69937;SDS011;57248;47.320;15.998;2023-02-15T02:53:28;32.58;;;11.93;;
69937;SDS011;57248;47.320;15.998;2023-02-15T02:56:06;36.97;;;12.57;;
69937;SDS011;57248;47.320;15.998;2023-02-15T02:58:52;35.50;;;12.85;;
69937;SDS011;57248;47.320;15.998;2023-02-15T03:01:45;33.47;;;12.37;;
69937;SDS011;57248;47.320;15.998;2023-02-15T03:04:24;29.98;;;11.32;;
69937;SDS011;57248;47.320;15.998;2023-02-15T03:07:07;31.08;;;11.90;;
69937;SDS011;57248;47.320;15.998;2023-02-15T03:09:42;32.90;;;11.30;;
69937;SDS011;57248;47.320;15.998;2023-02-15T03:12:23;32.05;;;12.20;;
69937;SDS011;57248;47.320;15.998;2023-02-15T03:15:03;35.80;;;12.63;;
69937;SDS011;57248;47.320;15.998;2023-02-15T03:17:38;32.10;;;12.63;;
69937;SDS011;57248;47.320;15.998;2023-02-15T03:20:16;33.35;;;12.48;;
69937;SDS011;57248;47.320;15.998;2023-02-15T03:23:11;32.05;;;11.80;;
69937;SDS011;57248;47.320;15.998;2023-02-15T03:25:48;33.50;;;12.20;;
69937;SDS011;57248;47.320;15.998;2023-02-15T03:28:26;34.03;;;11.63;;
69937;SDS011;57248;47.320;15.998;2023-02-15T03:31:04;32.28;;;12.02;;
69937;SDS011;57248;47.320;15.998;2023-02-15T03:33:42;32.17;;;11.90;;
69937;SDS011;57248;47.320;15.998;2023-02-15T03:42:29;31.47;;;11.73;;
69937;SDS011;57248;47.320;15.998;2023-02-15T03:47:40;32.45;;;11.93;;
69937;SDS011;57248;47.320;15.998;2023-02-15T03:53:11;31.33;;;11.40;;
69937;SDS011;57248;47.320;15.998;2023-02-15T03:55:49;31.13;;;10.90;;
69937;SDS011;57248;47.320;15.998;2023-02-15T03:58:24;29.98;;;11.30;;
69937;SDS011;57248;47.320;15.998;2023-02-15T04:01:19;31.35;;;11.90;;
69937;SDS011;57248;47.320;15.998;2023-02-15T04:04:15;33.22;;;11.75;;
69937;SDS011;57248;47.320;15.998;2023-02-15T04:06:50;28.40;;;11.68;;
69937;SDS011;57248;47.320;15.998;2023-02-15T04:09:23;30.80;;;11.53;;
69937;SDS011;57248;47.320;15.998;2023-02-15T04:12:12;31.98;;;11.57;;
69937;SDS011;57248;47.320;15.998;2023-02-15T04:14:44;29.08;;;10.48;;
69937;SDS011;57248;47.320;15.998;2023-02-15T04:17:36;34.92;;;12.50;;
69937;SDS011;57248;47.320;15.998;2023-02-15T04:20:09;32.88;;;11.65;;
69937;SDS011;57248;47.320;15.998;2023-02-15T04:22:59;32.40;;;12.67;;
69937;SDS011;57248;47.320;15.998;2023-02-15T04:25:49;33.90;;;12.13;;
69937;SDS011;57248;47.320;15.998;2023-02-15T04:28:22;32.72;;;11.73;;
69937;SDS011;57248;47.320;15.998;2023-02-15T04:30:54;30.75;;;11.90;;
69937;SDS011;57248;47.320;15.998;2023-02-15T04:33:26;31.25;;;12.38;;
69937;SDS011;57248;47.320;15.998;2023-02-15T04:36:05;34.17;;;12.17;;
69937;SDS011;57248;47.320;15.998;2023-02-15T04:38:36;32.65;;;12.20;;
69937;SDS011;57248;47.320;15.998;2023-02-15T04:41:08;30.13;;;12.02;;
69937;SDS011;57248;47.320;15.998;2023-02-15T04:43:41;29.33;;;11.43;;
69937;SDS011;57248;47.320;15.998;2023-02-15T04:46:13;32.97;;;12.65;;
69937;SDS011;57248;47.320;15.998;2023-02-15T04:48:39;33.83;;;12.17;;
69937;SDS011;57248;47.320;15.998;2023-02-15T04:51:10;32.60;;;12.43;;
69937;SDS011;57248;47.320;15.998;2023-02-15T04:53:42;30.47;;;12.07;;
69937;SDS011;57248;47.320;15.998;2023-02-15T04:56:15;36.80;;;12.40;;
69937;SDS011;57248;47.320;15.998;2023-02-15T04:58:46;33.55;;;12.15;;
69937;SDS011;57248;47.320;15.998;2023-02-15T05:01:18;35.92;;;11.90;;
69937;SDS011;57248;47.320;15.998;2023-02-15T05:03:50;34.05;;;11.90;;
69937;SDS011;57248;47.320;15.998;2023-02-15T05:06:22;28.43;;;11.73;;
69937;SDS011;57248;47.320;15.998;2023-02-15T05:08:55;33.88;;;11.90;;
69937;SDS011;57248;47.320;15.998;2023-02-15T05:11:27;30.90;;;11.57;;
69937;SDS011;57248;47.320;15.998;2023-02-15T05:13:52;34.40;;;12.20;;
69937;SDS011;57248;47.320;15.998;2023-02-15T05:16:25;30.73;;;11.45;;
69937;SDS011;57248;47.320;15.998;2023-02-15T05:18:59;29.52;;;11.45;;
69937;SDS011;57248;47.320;15.998;2023-02-15T05:21:31;35.20;;;12.07;;
69937;SDS011;57248;47.320;15.998;2023-02-15T05:23:57;30.88;;;12.55;;
69937;SDS011;57248;47.320;15.998;2023-02-15T05:26:29;32.80;;;12.77;;
69937;SDS011;57248;47.320;15.998;2023-02-15T05:29:18;29.70;;;12.02;;
69937;SDS011;57248;47.320;15.998;2023-02-15T05:31:50;31.02;;;11.70;;
69937;SDS011;57248;47.320;15.998;2023-02-15T05:34:24;29.90;;;11.20;;
69937;SDS011;57248;47.320;15.998;2023-02-15T05:36:56;35.75;;;13.40;;
69937;SDS011;57248;47.320;15.998;2023-02-15T05:39:28;32.80;;;11.87;;
69937;SDS011;57248;47.320;15.998;2023-02-15T05:42:00;33.35;;;12.15;;
69937;SDS011;57248;47.320;15.998;2023-02-15T05:44:32;35.80;;;13.13;;
69937;SDS011;57248;47.320;15.998;2023-02-15T05:47:05;31.42;;;11.90;;
69937;SDS011;57248;47.320;15.998;2023-02-15T05:49:39;34.80;;;13.00;;
69937;SDS011;57248;47.320;15.998;2023-02-15T05:52:10;32.90;;;12.10;;
69937;SDS011;57248;47.320;15.998;2023-02-15T05:54:44;33.80;;;12.32;;
69937;SDS011;57248;47.320;15.998;2023-02-15T05:57:15;31.02;;;12.20;;
69937;SDS011;57248;47.320;15.998;2023-02-15T05:59:47;37.78;;;12.23;;
69937;SDS011;57248;47.320;15.998;2023-02-15T06:02:20;30.30;;;11.48;;
69937;SDS011;57248;47.320;15.998;2023-02-15T06:04:51;26.27;;;10.30;;
69937;SDS011;57248;47.320;15.998;2023-02-15T06:07:24;36.47;;;12.52;;
69937;SDS011;57248;47.320;15.998;2023-02-15T06:09:56;36.03;;;12.43;;
69937;SDS011;57248;47.320;15.998;2023-02-15T06:12:21;32.33;;;12.30;;
69937;SDS011;57248;47.320;15.998;2023-02-15T06:14:53;37.17;;;13.38;;
69937;SDS011;57248;47.320;15.998;2023-02-15T06:17:24;32.33;;;12.35;;
69937;SDS011;57248;47.320;15.998;2023-02-15T06:19:56;31.35;;;12.40;;
69937;SDS011;57248;47.320;15.998;2023-02-15T06:22:29;33.30;;;12.37;;
69937;SDS011;57248;47.320;15.998;2023-02-15T06:25:01;29.33;;;11.30;;
69937;SDS011;57248;47.320;15.998;2023-02-15T06:27:33;31.30;;;11.45;;
69937;SDS011;57248;47.320;15.998;2023-02-15T06:30:05;28.33;;;11.25;;
69937;SDS011;57248;47.320;15.998;2023-02-15T06:32:31;28.38;;;9.85;;
69937;SDS011;57248;47.320;15.998;2023-02-15T06:35:04;29.30;;;11.20;;
69937;SDS011;57248;47.320;15.998;2023-02-15T06:37:37;31.92;;;11.23;;
69937;SDS011;57248;47.320;15.998;2023-02-15T06:40:10;30.92;;;11.85;;
69937;SDS011;57248;47.320;15.998;2023-02-15T06:42:42;31.05;;;11.40;;
69937;SDS011;57248;47.320;15.998;2023-02-15T06:45:14;29.38;;;10.77;;
69937;SDS011;57248;47.320;15.998;2023-02-15T06:47:53;30.53;;;11.27;;
69937;SDS011;57248;47.320;15.998;2023-02-15T06:50:25;27.58;;;9.85;;
69937;SDS011;57248;47.320;15.998;2023-02-15T06:52:57;29.48;;;9.98;;
69937;SDS011;57248;47.320;15.998;2023-02-15T06:55:29;28.63;;;9.90;;
69937;SDS011;57248;47.320;15.998;2023-02-15T06:58:00;25.38;;;9.13;;
69937;SDS011;57248;47.320;15.998;2023-02-15T07:00:33;26.70;;;9.30;;
69937;SDS011;57248;47.320;15.998;2023-02-15T07:03:05;25.52;;;8.90;;
69937;SDS011;57248;47.320;15.998;2023-02-15T07:05:32;26.70;;;8.85;;
69937;SDS011;57248;47.320;15.998;2023-02-15T07:08:06;26.03;;;9.63;;
69937;SDS011;57248;47.320;15.998;2023-02-15T07:10:38;24.60;;;9.30;;
69937;SDS011;57248;47.320;15.998;2023-02-15T07:13:10;25.88;;;9.60;;
69937;SDS011;57248;47.320;15.998;2023-02-15T07:15:42;30.40;;;9.75;;
69937;SDS011;57248;47.320;15.998;2023-02-15T07:18:14;26.42;;;9.10;;
69937;SDS011;57248;47.320;15.998;2023-02-15T07:20:47;24.00;;;8.33;;
69937;SDS011;57248;47.320;15.998;2023-02-15T07:23:19;23.15;;;8.00;;
69937;SDS011;57248;47.320;15.998;2023-02-15T07:26:00;27.10;;;8.95;;
69937;SDS011;57248;47.320;15.998;2023-02-15T07:28:33;24.17;;;8.75;;
69937;SDS011;57248;47.320;15.998;2023-02-15T07:31:06;24.35;;;8.40;;
69937;SDS011;57248;47.320;15.998;2023-02-15T07:33:44;25.27;;;8.80;;
69937;SDS011;57248;47.320;15.998;2023-02-15T07:36:17;28.02;;;9.55;;
69937;SDS011;57248;47.320;15.998;2023-02-15T07:38:55;25.83;;;8.85;;
69937;SDS011;57248;47.320;15.998;2023-02-15T07:41:28;27.50;;;9.55;;
69937;SDS011;57248;47.320;15.998;2023-02-15T07:44:13;25.35;;;8.80;;
69937;SDS011;57248;47.320;15.998;2023-02-15T07:46:46;24.57;;;8.47;;
69937;SDS011;57248;47.320;15.998;2023-02-15T07:49:18;25.30;;;8.90;;
69937;SDS011;57248;47.320;15.998;2023-02-15T07:51:51;23.95;;;8.93;;
69937;SDS011;57248;47.320;15.998;2023-02-15T07:54:23;27.13;;;9.02;;
69937;SDS011;57248;47.320;15.998;2023-02-15T07:56:55;25.85;;;9.13;;
69937;SDS011;57248;47.320;15.998;2023-02-15T07:59:21;25.10;;;8.50;;
69937;SDS011;57248;47.320;15.998;2023-02-15T08:01:53;26.73;;;9.30;;
69937;SDS011;57248;47.320;15.998;2023-02-15T08:04:26;27.13;;;9.25;;
69937;SDS011;57248;47.320;15.998;2023-02-15T08:06:58;26.83;;;9.98;;
69937;SDS011;57248;47.320;15.998;2023-02-15T08:09:30;25.75;;;9.30;;
69937;SDS011;57248;47.320;15.998;2023-02-15T08:12:02;26.73;;;10.00;;
69937;SDS011;57248;47.320;15.998;2023-02-15T08:14:34;24.27;;;8.75;;
69937;SDS011;57248;47.320;15.998;2023-02-15T08:17:06;24.77;;;8.45;;
69937;SDS011;57248;47.320;15.998;2023-02-15T08:19:38;25.08;;;9.32;;
69937;SDS011;57248;47.320;15.998;2023-02-15T08:22:11;27.38;;;9.57;;
69937;SDS011;57248;47.320;15.998;2023-02-15T08:24:45;27.30;;;9.53;;
69937;SDS011;57248;47.320;15.998;2023-02-15T08:27:18;31.33;;;10.25;;
69937;SDS011;57248;47.320;15.998;2023-02-15T08:29:50;27.13;;;9.88;;
69937;SDS011;57248;47.320;15.998;2023-02-15T08:32:22;25.85;;;8.98;;
69937;SDS011;57248;47.320;15.998;2023-02-15T08:35:00;27.50;;;9.40;;
69937;SDS011;57248;47.320;15.998;2023-02-15T08:37:33;29.90;;;10.23;;
69937;SDS011;57248;47.320;15.998;2023-02-15T08:40:05;32.03;;;11.52;;
69937;SDS011;57248;47.320;15.998;2023-02-15T08:42:38;32.47;;;10.95;;
69937;SDS011;57248;47.320;15.998;2023-02-15T08:45:10;27.05;;;10.15;;
69937;SDS011;57248;47.320;15.998;2023-02-15T08:47:42;25.73;;;9.73;;
69937;SDS011;57248;47.320;15.998;2023-02-15T08:50:14;28.83;;;10.33;;
69937;SDS011;57248;47.320;15.998;2023-02-15T08:52:47;33.10;;;12.18;;
69937;SDS011;57248;47.320;15.998;2023-02-15T08:55:19;35.08;;;11.43;;
69937;SDS011;57248;47.320;15.998;2023-02-15T08:57:44;33.57;;;12.23;;
69937;SDS011;57248;47.320;15.998;2023-02-15T09:00:18;37.90;;;12.85;;
69937;SDS011;57248;47.320;15.998;2023-02-15T09:02:50;46.33;;;15.10;;
69937;SDS011;57248;47.320;15.998;2023-02-15T09:05:22;37.13;;;13.25;;
69937;SDS011;57248;47.320;15.998;2023-02-15T09:07:54;32.87;;;11.03;;
69937;SDS011;57248;47.320;15.998;2023-02-15T09:10:26;35.03;;;10.93;;
69937;SDS011;57248;47.320;15.998;2023-02-15T09:12:58;32.45;;;11.82;;
69937;SDS011;57248;47.320;15.998;2023-02-15T09:15:30;34.33;;;11.98;;
69937;SDS011;57248;47.320;15.998;2023-02-15T09:18:02;38.38;;;12.18;;
69937;SDS011;57248;47.320;15.998;2023-02-15T09:20:38;32.33;;;11.27;;
69937;SDS011;57248;47.320;15.998;2023-02-15T09:23:10;33.15;;;10.77;;
69937;SDS011;57248;47.320;15.998;2023-02-15T09:25:42;37.78;;;11.55;;
69937;SDS011;57248;47.320;15.998;2023-02-15T09:28:14;32.65;;;10.30;;
69937;SDS011;57248;47.320;15.998;2023-02-15T09:30:46;35.50;;;12.15;;
69937;SDS011;57248;47.320;15.998;2023-02-15T09:33:19;30.77;;;9.83;;
69937;SDS011;57248;47.320;15.998;2023-02-15T09:36:05;35.45;;;12.88;;
69937;SDS011;57248;47.320;15.998;2023-02-15T09:38:45;35.70;;;12.75;;
69937;SDS011;57248;47.320;15.998;2023-02-15T09:56:48;31.60;;;11.13;;
69937;SDS011;57248;47.320;15.998;2023-02-15T09:59:39;34.05;;;12.43;;
69937;SDS011;57248;47.320;15.998;2023-02-15T10:02:23;36.27;;;12.13;;
69937;SDS011;57248;47.320;15.998;2023-02-15T10:37:44;34.80;;;12.30;;
69937;SDS011;57248;47.320;15.998;2023-02-15T10:45:54;35.57;;;12.27;;
69937;SDS011;57248;47.320;15.998;2023-02-15T10:51:44;30.27;;;11.00;;
69937;SDS011;57248;47.320;15.998;2023-02-15T10:54:22;33.97;;;11.65;;
69937;SDS011;57248;47.320;15.998;2023-02-15T10:57:13;29.75;;;10.32;;
69937;SDS011;57248;47.320;15.998;2023-02-15T11:08:24;30.50;;;12.35;;
69937;SDS011;57248;47.320;15.998;2023-02-15T11:11:01;32.90;;;12.50;;
69937;SDS011;57248;47.320;15.998;2023-02-15T11:13:39;33.97;;;12.27;;
69937;SDS011;57248;47.320;15.998;2023-02-15T11:16:21;32.90;;;12.27;;
69937;SDS011;57248;47.320;15.998;2023-02-15T11:21:49;31.40;;;10.40;;
69937;SDS011;57248;47.320;15.998;2023-02-15T11:24:24;33.10;;;13.02;;
69937;SDS011;57248;47.320;15.998;2023-02-15T11:27:31;33.43;;;12.60;;
69937;SDS011;57248;47.320;15.998;2023-02-15T11:30:00;34.38;;;13.18;;
69937;SDS011;57248;47.320;15.998;2023-02-15T11:32:55;33.75;;;12.80;;
69937;SDS011;57248;47.320;15.998;2023-02-15T11:35:49;30.75;;;12.18;;
69937;SDS011;57248;47.320;15.998;2023-02-15T11:38:27;34.20;;;12.95;;
69937;SDS011;57248;47.320;15.998;2023-02-15T11:41:05;28.80;;;11.87;;
69937;SDS011;57248;47.320;15.998;2023-02-15T11:43:47;29.90;;;13.00;;
69937;SDS011;57248;47.320;15.998;2023-02-15T11:46:24;28.45;;;12.35;;
69937;SDS011;57248;47.320;15.998;2023-02-15T11:48:56;32.60;;;13.32;;
69937;SDS011;57248;47.320;15.998;2023-02-15T11:51:29;31.17;;;13.23;;
69937;SDS011;57248;47.320;15.998;2023-02-15T11:53:54;32.43;;;13.60;;
69937;SDS011;57248;47.320;15.998;2023-02-15T11:56:30;31.45;;;12.80;;
69937;SDS011;57248;47.320;15.998;2023-02-15T11:59:12;33.20;;;13.75;;
69937;SDS011;57248;47.320;15.998;2023-02-15T12:01:50;31.25;;;13.75;;
69937;SDS011;57248;47.320;15.998;2023-02-15T12:04:25;32.45;;;13.40;;
69937;SDS011;57248;47.320;15.998;2023-02-15T12:07:02;30.17;;;13.73;;
69937;SDS011;57248;47.320;15.998;2023-02-15T12:13:16;33.35;;;14.93;;
69937;SDS011;57248;47.320;15.998;2023-02-15T12:15:51;30.90;;;13.38;;
69937;SDS011;57248;47.320;15.998;2023-02-15T12:18:36;30.20;;;13.30;;
69937;SDS011;57248;47.320;15.998;2023-02-15T12:21:23;30.83;;;13.53;;
69937;SDS011;57248;47.320;15.998;2023-02-15T12:24:00;32.22;;;14.80;;
69937;SDS011;57248;47.320;15.998;2023-02-15T12:26:44;31.10;;;13.93;;
69937;SDS011;57248;47.320;15.998;2023-02-15T12:29:16;30.80;;;14.13;;
69937;SDS011;57248;47.320;15.998;2023-02-15T12:31:46;30.63;;;14.27;;
69937;SDS011;57248;47.320;15.998;2023-02-15T12:34:29;31.80;;;14.33;;
69937;SDS011;57248;47.320;15.998;2023-02-15T12:39:55;30.52;;;14.43;;
69937;SDS011;57248;47.320;15.998;2023-02-15T12:42:40;30.45;;;14.50;;
69937;SDS011;57248;47.320;15.998;2023-02-15T12:45:29;29.25;;;13.25;;
69937;SDS011;57248;47.320;15.998;2023-02-15T12:50:51;31.50;;;13.88;;
69937;SDS011;57248;47.320;15.998;2023-02-15T12:53:33;33.90;;;14.50;;
69937;SDS011;57248;47.320;15.998;2023-02-15T12:56:08;32.08;;;14.05;;
69937;SDS011;57248;47.320;15.998;2023-02-15T12:58:41;32.20;;;13.73;;
69937;SDS011;57248;47.320;15.998;2023-02-15T13:01:19;31.67;;;13.87;;
69937;SDS011;57248;47.320;15.998;2023-02-15T13:04:01;30.13;;;13.40;;
69937;SDS011;57248;47.320;15.998;2023-02-15T13:06:36;33.97;;;15.60;;
69937;SDS011;57248;47.320;15.998;2023-02-15T13:09:14;33.40;;;14.82;;
69937;SDS011;57248;47.320;15.998;2023-02-15T13:11:49;33.83;;;15.32;;
69937;SDS011;57248;47.320;15.998;2023-02-15T13:14:33;32.43;;;15.37;;
69937;SDS011;57248;47.320;15.998;2023-02-15T13:17:05;30.55;;;15.00;;
69937;SDS011;57248;47.320;15.998;2023-02-15T13:19:42;29.50;;;14.68;;
69937;SDS011;57248;47.320;15.998;2023-02-15T13:22:21;30.67;;;14.23;;
69937;SDS011;57248;47.320;15.998;2023-02-15T13:24:59;31.33;;;14.02;;
69937;SDS011;57248;47.320;15.998;2023-02-15T13:27:37;33.30;;;15.02;;
69937;SDS011;57248;47.320;15.998;2023-02-15T13:33:06;30.92;;;14.48;;
69937;SDS011;57248;47.320;15.998;2023-02-15T13:36:14;32.43;;;14.80;;
69937;SDS011;57248;47.320;15.998;2023-02-15T13:42:00;33.50;;;14.63;;
69937;SDS011;57248;47.320;15.998;2023-02-15T13:44:51;32.05;;;14.90;;
69937;SDS011;57248;47.320;15.998;2023-02-15T13:50:51;29.80;;;13.50;;
69937;SDS011;57248;47.320;15.998;2023-02-15T13:59:46;30.08;;;13.40;;
69937;SDS011;57248;47.320;15.998;2023-02-15T14:05:28;32.50;;;13.73;;
69937;SDS011;57248;47.320;15.998;2023-02-15T14:08:11;39.85;;;14.35;;
69937;SDS011;57248;47.320;15.998;2023-02-15T14:13:50;32.05;;;13.68;;
69937;SDS011;57248;47.320;15.998;2023-02-15T14:16:28;32.80;;;14.07;;
69937;SDS011;57248;47.320;15.998;2023-02-15T14:22:17;34.08;;;14.25;;
69937;SDS011;57248;47.320;15.998;2023-02-15T14:25:02;36.40;;;14.23;;
69937;SDS011;57248;47.320;15.998;2023-02-15T14:27:43;33.35;;;13.75;;
69937;SDS011;57248;47.320;15.998;2023-02-15T14:30:24;33.10;;;13.85;;
69937;SDS011;57248;47.320;15.998;2023-02-15T14:33:52;30.63;;;13.13;;
69937;SDS011;57248;47.320;15.998;2023-02-15T14:36:26;30.25;;;12.88;;
69937;SDS011;57248;47.320;15.998;2023-02-15T14:39:20;31.67;;;13.52;;
69937;SDS011;57248;47.320;15.998;2023-02-15T14:42:18;33.20;;;13.55;;
69937;SDS011;57248;47.320;15.998;2023-02-15T14:44:59;32.00;;;13.20;;
69937;SDS011;57248;47.320;15.998;2023-02-15T14:47:38;32.20;;;13.43;;
69937;SDS011;57248;47.320;15.998;2023-02-15T14:56:06;35.70;;;12.90;;
69937;SDS011;57248;47.320;15.998;2023-02-15T14:58:54;36.58;;;14.52;;
69937;SDS011;57248;47.320;15.998;2023-02-15T15:01:32;35.57;;;13.57;;
69937;SDS011;57248;47.320;15.998;2023-02-15T15:04:14;39.05;;;12.98;;
69937;SDS011;57248;47.320;15.998;2023-02-15T15:18:03;34.67;;;13.10;;
69937;SDS011;57248;47.320;15.998;2023-02-15T15:25:58;37.28;;;13.88;;
69937;SDS011;57248;47.320;15.998;2023-02-15T15:28:53;33.70;;;12.97;;
69937;SDS011;57248;47.320;15.998;2023-02-15T15:31:31;37.33;;;13.63;;
69937;SDS011;57248;47.320;15.998;2023-02-15T15:34:28;35.63;;;13.98;;
69937;SDS011;57248;47.320;15.998;2023-02-15T15:41:17;35.70;;;14.55;;
69937;SDS011;57248;47.320;15.998;2023-02-15T15:48:13;38.83;;;13.30;;
69937;SDS011;57248;47.320;15.998;2023-02-15T15:50:54;38.15;;;13.43;;
69937;SDS011;57248;47.320;15.998;2023-02-15T15:53:32;36.45;;;14.07;;
69937;SDS011;57248;47.320;15.998;2023-02-15T15:56:13;39.03;;;15.88;;
69937;SDS011;57248;47.320;15.998;2023-02-15T15:58:52;40.53;;;13.50;;
69937;SDS011;57248;47.320;15.998;2023-02-15T16:01:29;36.88;;;12.60;;
69937;SDS011;57248;47.320;15.998;2023-02-15T16:04:02;34.67;;;12.80;;
69937;SDS011;57248;47.320;15.998;2023-02-15T16:06:35;34.22;;;13.02;;
69937;SDS011;57248;47.320;15.998;2023-02-15T16:09:21;34.40;;;12.52;;
69937;SDS011;57248;47.320;15.998;2023-02-15T16:11:58;36.30;;;12.90;;
69937;SDS011;57248;47.320;15.998;2023-02-15T16:14:36;35.17;;;12.52;;
69937;SDS011;57248;47.320;15.998;2023-02-15T16:17:14;36.75;;;12.43;;
69937;SDS011;57248;47.320;15.998;2023-02-15T16:19:53;33.90;;;11.85;;
69937;SDS011;57248;47.320;15.998;2023-02-15T16:22:45;34.47;;;12.75;;
69937;SDS011;57248;47.320;15.998;2023-02-15T16:25:34;38.07;;;13.33;;
69937;SDS011;57248;47.320;15.998;2023-02-15T16:28:15;36.92;;;13.07;;
69937;SDS011;57248;47.320;15.998;2023-02-15T16:31:12;34.58;;;12.68;;
69937;SDS011;57248;47.320;15.998;2023-02-15T16:33:46;33.55;;;12.15;;
69937;SDS011;57248;47.320;15.998;2023-02-15T16:36:26;38.50;;;13.80;;
69937;SDS011;57248;47.320;15.998;2023-02-15T16:39:07;36.43;;;13.53;;
69937;SDS011;57248;47.320;15.998;2023-02-15T16:41:41;37.10;;;12.07;;
69937;SDS011;57248;47.320;15.998;2023-02-15T16:44:18;37.38;;;11.85;;
69937;SDS011;57248;47.320;15.998;2023-02-15T16:46:51;35.50;;;11.90;;
69937;SDS011;57248;47.320;15.998;2023-02-15T16:49:26;40.25;;;12.98;;
69937;SDS011;57248;47.320;15.998;2023-02-15T16:52:04;39.90;;;13.80;;
69937;SDS011;57248;47.320;15.998;2023-02-15T16:54:38;37.42;;;13.52;;
69937;SDS011;57248;47.320;15.998;2023-02-15T16:57:18;42.90;;;14.10;;
69937;SDS011;57248;47.320;15.998;2023-02-15T16:59:53;39.70;;;14.60;;
69937;SDS011;57248;47.320;15.998;2023-02-15T17:02:29;41.53;;;13.60;;
69937;SDS011;57248;47.320;15.998;2023-02-15T17:05:16;41.90;;;13.43;;
69937;SDS011;57248;47.320;15.998;2023-02-15T17:08:12;36.35;;;12.40;;
69937;SDS011;57248;47.320;15.998;2023-02-15T17:19:24;42.07;;;12.73;;
69937;SDS011;57248;47.320;15.998;2023-02-15T17:22:03;37.53;;;12.63;;
69937;SDS011;57248;47.320;15.998;2023-02-15T17:24:40;42.50;;;14.10;;
69937;SDS011;57248;47.320;15.998;2023-02-15T17:27:16;45.95;;;15.63;;
69937;SDS011;57248;47.320;15.998;2023-02-15T17:30:14;39.38;;;14.18;;
69937;SDS011;57248;47.320;15.998;2023-02-15T17:32:58;37.50;;;12.57;;
69937;SDS011;57248;47.320;15.998;2023-02-15T17:35:39;42.05;;;14.50;;
69937;SDS011;57248;47.320;15.998;2023-02-15T17:38:19;45.67;;;14.98;;
69937;SDS011;57248;47.320;15.998;2023-02-15T17:40:59;45.70;;;13.38;;
69937;SDS011;57248;47.320;15.998;2023-02-15T17:43:31;38.15;;;13.95;;
69937;SDS011;57248;47.320;15.998;2023-02-15T17:46:03;41.27;;;14.63;;
69937;SDS011;57248;47.320;15.998;2023-02-15T17:48:35;54.72;;;18.05;;
69937;SDS011;57248;47.320;15.998;2023-02-15T17:51:11;48.00;;;15.90;;
69937;SDS011;57248;47.320;15.998;2023-02-15T17:53:46;41.25;;;15.02;;
69937;SDS011;57248;47.320;15.998;2023-02-15T17:56:37;42.17;;;14.93;;
69937;SDS011;57248;47.320;15.998;2023-02-15T17:59:10;40.70;;;13.40;;
69937;SDS011;57248;47.320;15.998;2023-02-15T18:01:47;38.85;;;13.35;;
69937;SDS011;57248;47.320;15.998;2023-02-15T18:04:39;40.30;;;14.00;;